sensor_id;sensor_type;location;lat;lon;timestamp;pressure;altitude;pressure_sealevel;temperature;humidity
76132;BME280;64877;50.994;13.650;2024-02-14T00:01:13;100058.34;;;3.96;95.23
76132;BME280;64877;50.994;13.650;2024-02-14T00:03:39;100064.56;;;3.96;93.68
76132;BME280;64877;50.994;13.650;2024-02-14T00:06:05;100058.22;;;3.99;93.67
76132;BME280;64877;50.994;13.650;2024-02-14T00:08:31;100054.69;;;3.98;94.58
76132;BME280;64877;50.994;13.650;2024-02-14T00:10:56;100054.25;;;4.07;94.61
76132;BME280;64877;50.994;13.650;2024-02-14T00:13:22;100043.66;;;4.06;94.74
76132;BME280;64877;50.994;13.650;2024-02-14T00:15:47;100048.59;;;4.15;94.38
76132;BME280;64877;50.994;13.650;2024-02-14T00:18:13;100048.50;;;4.17;94.27
76132;BME280;64877;50.994;13.650;2024-02-14T00:20:40;100046.28;;;4.26;94.63
76132;BME280;64877;50.994;13.650;2024-02-14T00:23:05;100049.78;;;4.28;94.59
76132;BME280;64877;50.994;13.650;2024-02-14T00:25:31;100047.88;;;4.30;94.31
76132;BME280;64877;50.994;13.650;2024-02-14T00:27:57;100045.13;;;4.32;93.65
76132;BME280;64877;50.994;13.650;2024-02-14T00:30:26;100050.28;;;4.36;93.23
76132;BME280;64877;50.994;13.650;2024-02-14T00:32:51;100051.44;;;4.50;93.12
76132;BME280;64877;50.994;13.650;2024-02-14T00:35:17;100048.13;;;4.45;93.94
76132;BME280;64877;50.994;13.650;2024-02-14T00:37:42;100040.22;;;4.41;93.55
76132;BME280;64877;50.994;13.650;2024-02-14T00:40:08;100043.84;;;4.40;93.22
76132;BME280;64877;50.994;13.650;2024-02-14T00:42:34;100039.97;;;4.48;92.93
76132;BME280;64877;50.994;13.650;2024-02-14T00:44:59;100034.13;;;4.58;92.95
76132;BME280;64877;50.994;13.650;2024-02-14T00:47:25;100038.38;;;4.62;91.79
76132;BME280;64877;50.994;13.650;2024-02-14T00:49:50;100046.03;;;4.70;91.31
76132;BME280;64877;50.994;13.650;2024-02-14T00:52:17;100038.53;;;4.78;91.63
76132;BME280;64877;50.994;13.650;2024-02-14T00:54:42;100048.84;;;4.86;91.34
76132;BME280;64877;50.994;13.650;2024-02-14T00:57:09;100040.38;;;4.95;90.93
76132;BME280;64877;50.994;13.650;2024-02-14T00:59:34;100041.41;;;4.92;91.72
76132;BME280;64877;50.994;13.650;2024-02-14T01:02:00;100045.00;;;4.91;92.46
76132;BME280;64877;50.994;13.650;2024-02-14T01:04:25;100045.09;;;4.90;90.74
76132;BME280;64877;50.994;13.650;2024-02-14T01:06:51;100034.47;;;4.88;90.76
76132;BME280;64877;50.994;13.650;2024-02-14T01:09:18;100046.75;;;4.92;89.60
76132;BME280;64877;50.994;13.650;2024-02-14T01:11:43;100044.72;;;4.98;90.08
76132;BME280;64877;50.994;13.650;2024-02-14T01:14:09;100040.25;;;4.98;90.34
76132;BME280;64877;50.994;13.650;2024-02-14T01:16:42;100042.06;;;4.98;91.53
76132;BME280;64877;50.994;13.650;2024-02-14T01:19:08;100040.47;;;4.93;91.72
76132;BME280;64877;50.994;13.650;2024-02-14T01:21:33;100040.75;;;4.87;92.08
76132;BME280;64877;50.994;13.650;2024-02-14T01:23:58;100033.72;;;4.85;92.63
76132;BME280;64877;50.994;13.650;2024-02-14T01:26:24;100039.94;;;4.85;92.85
76132;BME280;64877;50.994;13.650;2024-02-14T01:28:49;100038.94;;;4.88;92.86
76132;BME280;64877;50.994;13.650;2024-02-14T01:31:14;100036.06;;;4.74;93.81
76132;BME280;64877;50.994;13.650;2024-02-14T01:33:40;100042.28;;;4.74;94.69
76132;BME280;64877;50.994;13.650;2024-02-14T01:36:06;100034.59;;;4.66;95.30
76132;BME280;64877;50.994;13.650;2024-02-14T01:38:31;100037.34;;;4.65;95.09
76132;BME280;64877;50.994;13.650;2024-02-14T01:41:01;100045.31;;;4.66;94.75
76132;BME280;64877;50.994;13.650;2024-02-14T01:43:28;100038.09;;;4.69;94.06
76132;BME280;64877;50.994;13.650;2024-02-14T01:45:53;100033.81;;;4.64;94.48
76132;BME280;64877;50.994;13.650;2024-02-14T01:48:19;100033.91;;;4.63;93.17
76132;BME280;64877;50.994;13.650;2024-02-14T01:50:46;100027.59;;;4.64;93.09
76132;BME280;64877;50.994;13.650;2024-02-14T01:53:12;100028.38;;;4.66;93.95
76132;BME280;64877;50.994;13.650;2024-02-14T01:55:38;100026.00;;;4.60;93.73
76132;BME280;64877;50.994;13.650;2024-02-14T01:58:04;100022.47;;;4.59;94.06
76132;BME280;64877;50.994;13.650;2024-02-14T02:00:30;100018.97;;;4.57;93.10
76132;BME280;64877;50.994;13.650;2024-02-14T02:02:59;100012.50;;;4.63;92.08
76132;BME280;64877;50.994;13.650;2024-02-14T02:05:24;100009.38;;;4.72;91.30
76132;BME280;64877;50.994;13.650;2024-02-14T02:07:49;100017.16;;;4.77;90.88
76132;BME280;64877;50.994;13.650;2024-02-14T02:10:15;100013.41;;;4.81;91.39
76132;BME280;64877;50.994;13.650;2024-02-14T02:12:41;100010.97;;;4.76;92.70
76132;BME280;64877;50.994;13.650;2024-02-14T02:15:07;100011.81;;;4.77;92.53
76132;BME280;64877;50.994;13.650;2024-02-14T02:17:36;100013.50;;;4.79;92.12
76132;BME280;64877;50.994;13.650;2024-02-14T02:20:02;100012.78;;;4.76;92.71
76132;BME280;64877;50.994;13.650;2024-02-14T02:22:27;100014.50;;;4.77;93.22
76132;BME280;64877;50.994;13.650;2024-02-14T02:24:57;100014.88;;;4.69;93.06
76132;BME280;64877;50.994;13.650;2024-02-14T02:27:22;100014.31;;;4.62;93.13
76132;BME280;64877;50.994;13.650;2024-02-14T02:29:48;100019.06;;;4.56;92.73
76132;BME280;64877;50.994;13.650;2024-02-14T02:32:13;100014.38;;;4.61;92.46
76132;BME280;64877;50.994;13.650;2024-02-14T02:34:40;100015.44;;;4.76;91.52
76132;BME280;64877;50.994;13.650;2024-02-14T02:37:05;100002.41;;;4.87;90.80
76132;BME280;64877;50.994;13.650;2024-02-14T02:39:34;100006.13;;;4.84;91.33
76132;BME280;64877;50.994;13.650;2024-02-14T02:42:01;100011.78;;;4.78;91.04
76132;BME280;64877;50.994;13.650;2024-02-14T02:44:27;100006.91;;;4.86;90.35
76132;BME280;64877;50.994;13.650;2024-02-14T02:46:52;100000.63;;;4.87;89.31
76132;BME280;64877;50.994;13.650;2024-02-14T02:49:18;100003.13;;;4.90;87.56
76132;BME280;64877;50.994;13.650;2024-02-14T02:51:43;100000.78;;;5.02;87.90
76132;BME280;64877;50.994;13.650;2024-02-14T02:54:09;99998.06;;;5.03;87.27
76132;BME280;64877;50.994;13.650;2024-02-14T02:56:36;99990.66;;;5.08;86.06
76132;BME280;64877;50.994;13.650;2024-02-14T02:59:02;99989.97;;;5.22;85.36
76132;BME280;64877;50.994;13.650;2024-02-14T03:01:35;99991.16;;;5.34;84.74
76132;BME280;64877;50.994;13.650;2024-02-14T03:04:00;99990.13;;;5.36;85.19
76132;BME280;64877;50.994;13.650;2024-02-14T03:06:26;99990.69;;;5.43;85.29
76132;BME280;64877;50.994;13.650;2024-02-14T03:08:52;99986.44;;;5.39;85.00
76132;BME280;64877;50.994;13.650;2024-02-14T03:11:19;99974.91;;;5.37;85.14
76132;BME280;64877;50.994;13.650;2024-02-14T03:13:44;99988.31;;;5.37;85.11
76132;BME280;64877;50.994;13.650;2024-02-14T03:16:09;99988.66;;;5.48;84.93
76132;BME280;64877;50.994;13.650;2024-02-14T03:18:36;99988.25;;;5.56;83.93
76132;BME280;64877;50.994;13.650;2024-02-14T03:21:03;99988.25;;;5.56;83.94
76132;BME280;64877;50.994;13.650;2024-02-14T03:23:31;99981.00;;;5.58;83.19
76132;BME280;64877;50.994;13.650;2024-02-14T03:25:57;99980.91;;;5.59;83.08
76132;BME280;64877;50.994;13.650;2024-02-14T03:28:22;99982.75;;;5.59;83.72
76132;BME280;64877;50.994;13.650;2024-02-14T03:30:48;99975.31;;;5.64;83.18
76132;BME280;64877;50.994;13.650;2024-02-14T03:33:14;99984.47;;;5.77;83.27
76132;BME280;64877;50.994;13.650;2024-02-14T03:35:40;99978.78;;;5.83;83.79
76132;BME280;64877;50.994;13.650;2024-02-14T03:38:06;99977.81;;;5.84;83.71
76132;BME280;64877;50.994;13.650;2024-02-14T03:40:34;99973.47;;;5.82;82.41
76132;BME280;64877;50.994;13.650;2024-02-14T03:43:01;99977.66;;;5.87;82.55
76132;BME280;64877;50.994;13.650;2024-02-14T03:45:27;99981.97;;;5.90;82.38
76132;BME280;64877;50.994;13.650;2024-02-14T03:47:55;99979.63;;;5.84;82.13
76132;BME280;64877;50.994;13.650;2024-02-14T03:50:21;99966.22;;;5.84;81.67
76132;BME280;64877;50.994;13.650;2024-02-14T03:52:47;99969.53;;;5.89;82.06
76132;BME280;64877;50.994;13.650;2024-02-14T03:55:13;99968.66;;;5.88;82.49
76132;BME280;64877;50.994;13.650;2024-02-14T03:57:39;99963.31;;;5.88;81.84
76132;BME280;64877;50.994;13.650;2024-02-14T04:00:05;99964.09;;;5.90;81.21
76132;BME280;64877;50.994;13.650;2024-02-14T04:02:39;99965.78;;;5.93;80.69
76132;BME280;64877;50.994;13.650;2024-02-14T04:05:05;99964.91;;;5.92;80.27
76132;BME280;64877;50.994;13.650;2024-02-14T04:07:32;99954.47;;;6.04;81.05
76132;BME280;64877;50.994;13.650;2024-02-14T04:09:59;99957.88;;;6.07;81.13
76132;BME280;64877;50.994;13.650;2024-02-14T04:12:25;99951.78;;;6.04;80.29
76132;BME280;64877;50.994;13.650;2024-02-14T04:14:50;99955.84;;;6.11;81.12
76132;BME280;64877;50.994;13.650;2024-02-14T04:17:15;99954.03;;;6.11;78.69
76132;BME280;64877;50.994;13.650;2024-02-14T04:19:41;99953.19;;;6.11;79.03
76132;BME280;64877;50.994;13.650;2024-02-14T04:22:06;99945.13;;;6.11;78.61
76132;BME280;64877;50.994;13.650;2024-02-14T04:24:33;99943.91;;;6.01;79.22
76132;BME280;64877;50.994;13.650;2024-02-14T04:26:59;99949.50;;;5.96;79.84
76132;BME280;64877;50.994;13.650;2024-02-14T04:29:26;99957.66;;;5.94;80.17
76132;BME280;64877;50.994;13.650;2024-02-14T04:31:53;99954.00;;;5.95;80.64
76132;BME280;64877;50.994;13.650;2024-02-14T04:34:19;99951.53;;;5.91;81.56
76132;BME280;64877;50.994;13.650;2024-02-14T04:36:44;99944.25;;;5.77;80.71
76132;BME280;64877;50.994;13.650;2024-02-14T04:39:10;99942.69;;;5.73;81.01
76132;BME280;64877;50.994;13.650;2024-02-14T04:41:35;99950.88;;;5.70;80.97
76132;BME280;64877;50.994;13.650;2024-02-14T04:44:05;99944.75;;;5.68;80.51
76132;BME280;64877;50.994;13.650;2024-02-14T04:46:34;99941.50;;;5.61;80.27
76132;BME280;64877;50.994;13.650;2024-02-14T04:49:01;99944.75;;;5.68;80.23
76132;BME280;64877;50.994;13.650;2024-02-14T04:51:30;99947.19;;;5.73;79.93
76132;BME280;64877;50.994;13.650;2024-02-14T04:53:56;99939.06;;;5.74;79.46
76132;BME280;64877;50.994;13.650;2024-02-14T04:56:26;99942.06;;;5.68;78.69
76132;BME280;64877;50.994;13.650;2024-02-14T04:58:55;99937.47;;;5.70;79.26
76132;BME280;64877;50.994;13.650;2024-02-14T05:01:20;99941.88;;;5.71;79.69
76132;BME280;64877;50.994;13.650;2024-02-14T05:03:46;99941.13;;;5.69;79.69
76132;BME280;64877;50.994;13.650;2024-02-14T05:06:11;99946.56;;;5.67;78.70
76132;BME280;64877;50.994;13.650;2024-02-14T05:08:37;99944.91;;;5.65;78.71
76132;BME280;64877;50.994;13.650;2024-02-14T05:11:02;99939.53;;;5.65;79.42
76132;BME280;64877;50.994;13.650;2024-02-14T05:13:29;99941.28;;;5.66;79.76
76132;BME280;64877;50.994;13.650;2024-02-14T05:15:55;99938.91;;;5.60;79.46
76132;BME280;64877;50.994;13.650;2024-02-14T05:18:20;99936.09;;;5.63;79.92
76132;BME280;64877;50.994;13.650;2024-02-14T05:20:45;99939.41;;;5.68;79.84
76132;BME280;64877;50.994;13.650;2024-02-14T05:23:11;99939.41;;;5.68;80.60
76132;BME280;64877;50.994;13.650;2024-02-14T05:25:37;99942.06;;;5.68;80.39
76132;BME280;64877;50.994;13.650;2024-02-14T05:28:02;99938.53;;;5.67;79.92
76132;BME280;64877;50.994;13.650;2024-02-14T05:30:27;99935.75;;;5.69;80.82
76132;BME280;64877;50.994;13.650;2024-02-14T05:32:54;99934.72;;;5.71;79.61
76132;BME280;64877;50.994;13.650;2024-02-14T05:35:19;99931.16;;;5.71;79.69
76132;BME280;64877;50.994;13.650;2024-02-14T05:37:45;99936.22;;;5.77;78.80
76132;BME280;64877;50.994;13.650;2024-02-14T05:40:14;99927.22;;;5.78;78.38
76132;BME280;64877;50.994;13.650;2024-02-14T05:42:40;99917.13;;;5.83;77.35
76132;BME280;64877;50.994;13.650;2024-02-14T05:45:05;99920.13;;;5.94;77.87
76132;BME280;64877;50.994;13.650;2024-02-14T05:47:31;99917.09;;;6.01;79.74
76132;BME280;64877;50.994;13.650;2024-02-14T05:49:57;99923.31;;;6.01;78.82
76132;BME280;64877;50.994;13.650;2024-02-14T05:52:22;99921.44;;;6.03;77.27
76132;BME280;64877;50.994;13.650;2024-02-14T05:54:48;99916.00;;;6.05;79.32
76132;BME280;64877;50.994;13.650;2024-02-14T05:57:13;99915.84;;;6.08;80.03
76132;BME280;64877;50.994;13.650;2024-02-14T05:59:39;99918.56;;;6.06;81.12
76132;BME280;64877;50.994;13.650;2024-02-14T06:02:05;99916.59;;;6.10;76.38
76132;BME280;64877;50.994;13.650;2024-02-14T06:04:31;99908.56;;;6.10;76.26
76132;BME280;64877;50.994;13.650;2024-02-14T06:06:56;99902.84;;;6.16;75.28
76132;BME280;64877;50.994;13.650;2024-02-14T06:09:22;99903.03;;;6.29;73.35
76132;BME280;64877;50.994;13.650;2024-02-14T06:11:47;99902.94;;;6.30;73.83
76132;BME280;64877;50.994;13.650;2024-02-14T06:14:12;99903.28;;;6.40;72.54
76132;BME280;64877;50.994;13.650;2024-02-14T06:16:38;99901.47;;;6.40;73.52
76132;BME280;64877;50.994;13.650;2024-02-14T06:19:04;99904.97;;;6.42;77.27
76132;BME280;64877;50.994;13.650;2024-02-14T06:21:30;99920.78;;;6.47;78.81
76132;BME280;64877;50.994;13.650;2024-02-14T06:23:55;99913.59;;;6.47;80.10
76132;BME280;64877;50.994;13.650;2024-02-14T06:26:21;99917.66;;;6.55;77.89
76132;BME280;64877;50.994;13.650;2024-02-14T06:28:46;99924.94;;;6.53;77.25
76132;BME280;64877;50.994;13.650;2024-02-14T06:31:12;99917.50;;;6.42;79.32
76132;BME280;64877;50.994;13.650;2024-02-14T06:33:37;99918.44;;;6.41;79.59
76132;BME280;64877;50.994;13.650;2024-02-14T06:36:03;99922.63;;;6.46;80.57
76132;BME280;64877;50.994;13.650;2024-02-14T06:38:29;99928.03;;;6.61;79.67
76132;BME280;64877;50.994;13.650;2024-02-14T06:40:56;99935.75;;;6.67;79.29
76132;BME280;64877;50.994;13.650;2024-02-14T06:43:22;99929.00;;;6.60;79.68
76132;BME280;64877;50.994;13.650;2024-02-14T06:45:47;99931.50;;;6.63;77.33
76132;BME280;64877;50.994;13.650;2024-02-14T06:48:12;99935.47;;;6.56;76.30
76132;BME280;64877;50.994;13.650;2024-02-14T06:50:38;99936.69;;;6.66;76.55
76132;BME280;64877;50.994;13.650;2024-02-14T06:53:03;99933.84;;;6.69;76.62
76132;BME280;64877;50.994;13.650;2024-02-14T06:55:29;99932.72;;;6.73;76.10
76132;BME280;64877;50.994;13.650;2024-02-14T06:57:58;99936.97;;;6.77;75.07
76132;BME280;64877;50.994;13.650;2024-02-14T07:00:23;99936.09;;;6.77;75.16
76132;BME280;64877;50.994;13.650;2024-02-14T07:02:49;99936.44;;;6.86;75.22
76132;BME280;64877;50.994;13.650;2024-02-14T07:05:14;99934.66;;;7.01;74.67
76132;BME280;64877;50.994;13.650;2024-02-14T07:07:41;99926.75;;;7.14;75.00
76132;BME280;64877;50.994;13.650;2024-02-14T07:10:07;99917.66;;;7.16;73.79
76132;BME280;64877;50.994;13.650;2024-02-14T07:12:33;99915.63;;;7.20;70.55
76132;BME280;64877;50.994;13.650;2024-02-14T07:14:58;99914.31;;;7.27;69.68
76132;BME280;64877;50.994;13.650;2024-02-14T07:17:24;99899.38;;;7.37;69.59
76132;BME280;64877;50.994;13.650;2024-02-14T07:19:49;99903.03;;;7.50;72.06
76132;BME280;64877;50.994;13.650;2024-02-14T07:22:16;99899.03;;;7.58;72.24
76132;BME280;64877;50.994;13.650;2024-02-14T07:24:43;99902.19;;;7.64;71.32
76132;BME280;64877;50.994;13.650;2024-02-14T07:27:09;99903.75;;;7.68;70.93
76132;BME280;64877;50.994;13.650;2024-02-14T07:29:34;99906.31;;;7.70;73.04
76132;BME280;64877;50.994;13.650;2024-02-14T07:32:01;99899.63;;;7.77;72.75
76132;BME280;64877;50.994;13.650;2024-02-14T07:34:27;99894.03;;;7.80;73.91
76132;BME280;64877;50.994;13.650;2024-02-14T07:36:52;99892.53;;;7.76;72.43
76132;BME280;64877;50.994;13.650;2024-02-14T07:39:18;99894.31;;;7.75;72.92
76132;BME280;64877;50.994;13.650;2024-02-14T07:41:44;99884.75;;;7.86;72.22
76132;BME280;64877;50.994;13.650;2024-02-14T07:44:09;99889.34;;;7.98;72.11
76132;BME280;64877;50.994;13.650;2024-02-14T07:46:34;99888.66;;;8.09;70.35
76132;BME280;64877;50.994;13.650;2024-02-14T07:49:00;99876.16;;;8.22;70.53
76132;BME280;64877;50.994;13.650;2024-02-14T07:51:25;99874.03;;;8.27;69.59
76132;BME280;64877;50.994;13.650;2024-02-14T07:53:53;99871.50;;;8.52;68.34
76132;BME280;64877;50.994;13.650;2024-02-14T07:56:18;99872.97;;;8.71;66.43
76132;BME280;64877;50.994;13.650;2024-02-14T07:58:43;99867.31;;;8.88;66.09
76132;BME280;64877;50.994;13.650;2024-02-14T08:01:09;99855.31;;;9.06;64.43
76132;BME280;64877;50.994;13.650;2024-02-14T08:03:34;99852.94;;;9.15;63.82
76132;BME280;64877;50.994;13.650;2024-02-14T08:06:00;99853.28;;;9.23;63.08
76132;BME280;64877;50.994;13.650;2024-02-14T08:08:26;99854.78;;;9.27;62.77
76132;BME280;64877;50.994;13.650;2024-02-14T08:10:52;99855.03;;;9.37;62.45
76132;BME280;64877;50.994;13.650;2024-02-14T08:13:18;99846.50;;;9.43;62.86
76132;BME280;64877;50.994;13.650;2024-02-14T08:15:44;99843.91;;;9.54;62.18
76132;BME280;64877;50.994;13.650;2024-02-14T08:18:10;99844.97;;;9.64;61.78
76132;BME280;64877;50.994;13.650;2024-02-14T08:20:35;99842.28;;;9.77;62.59
76132;BME280;64877;50.994;13.650;2024-02-14T08:23:00;99839.69;;;9.88;62.05
76132;BME280;64877;50.994;13.650;2024-02-14T08:25:26;99835.00;;;10.03;61.12
76132;BME280;64877;50.994;13.650;2024-02-14T08:27:52;99838.03;;;9.98;60.80
76132;BME280;64877;50.994;13.650;2024-02-14T08:30:17;99835.97;;;10.15;60.50
76132;BME280;64877;50.994;13.650;2024-02-14T08:32:44;99830.44;;;10.29;59.91
76132;BME280;64877;50.994;13.650;2024-02-14T08:35:10;99834.81;;;10.43;61.13
76132;BME280;64877;50.994;13.650;2024-02-14T08:37:36;99833.63;;;10.71;59.71
76132;BME280;64877;50.994;13.650;2024-02-14T08:40:03;99821.88;;;10.83;59.00
76132;BME280;64877;50.994;13.650;2024-02-14T08:42:32;99814.28;;;10.88;58.22
76132;BME280;64877;50.994;13.650;2024-02-14T08:44:58;99810.97;;;10.84;58.81
76132;BME280;64877;50.994;13.650;2024-02-14T08:47:23;99808.66;;;10.91;59.92
76132;BME280;64877;50.994;13.650;2024-02-14T08:49:49;99809.28;;;10.95;58.87
76132;BME280;64877;50.994;13.650;2024-02-14T08:52:14;99803.72;;;10.85;58.56
76132;BME280;64877;50.994;13.650;2024-02-14T08:54:39;99801.13;;;10.83;58.36
76132;BME280;64877;50.994;13.650;2024-02-14T08:57:05;99800.31;;;10.94;59.04
76132;BME280;64877;50.994;13.650;2024-02-14T08:59:30;99805.97;;;11.02;58.26
76132;BME280;64877;50.994;13.650;2024-02-14T09:01:56;99817.56;;;11.16;57.69
76132;BME280;64877;50.994;13.650;2024-02-14T09:04:22;99816.88;;;11.25;57.92
76132;BME280;64877;50.994;13.650;2024-02-14T09:06:47;99827.19;;;11.31;56.85
76132;BME280;64877;50.994;13.650;2024-02-14T09:09:12;99839.25;;;11.38;57.06
76132;BME280;64877;50.994;13.650;2024-02-14T09:11:39;99829.56;;;11.47;57.96
76132;BME280;64877;50.994;13.650;2024-02-14T09:14:06;99823.41;;;11.45;58.15
76132;BME280;64877;50.994;13.650;2024-02-14T09:16:33;99822.16;;;11.37;57.45
76132;BME280;64877;50.994;13.650;2024-02-14T09:18:59;99817.00;;;11.34;58.29
76132;BME280;64877;50.994;13.650;2024-02-14T09:21:24;99817.16;;;11.44;57.36
76132;BME280;64877;50.994;13.650;2024-02-14T09:23:50;99825.84;;;11.36;58.14
76132;BME280;64877;50.994;13.650;2024-02-14T09:26:15;99821.22;;;11.50;57.47
76132;BME280;64877;50.994;13.650;2024-02-14T09:28:44;99824.16;;;11.58;58.05
76132;BME280;64877;50.994;13.650;2024-02-14T09:31:09;99831.91;;;11.62;58.20
76132;BME280;64877;50.994;13.650;2024-02-14T09:33:37;99831.31;;;11.59;58.80
76132;BME280;64877;50.994;13.650;2024-02-14T09:36:03;99834.38;;;11.65;58.29
76132;BME280;64877;50.994;13.650;2024-02-14T09:38:30;99836.31;;;11.52;59.07
76132;BME280;64877;50.994;13.650;2024-02-14T09:41:05;99822.22;;;11.60;59.00
76132;BME280;64877;50.994;13.650;2024-02-14T09:43:43;99831.69;;;11.65;59.37
76132;BME280;64877;50.994;13.650;2024-02-14T09:46:12;99829.47;;;11.71;58.07
76132;BME280;64877;50.994;13.650;2024-02-14T09:48:38;99843.25;;;11.79;58.76
76132;BME280;64877;50.994;13.650;2024-02-14T09:51:05;99844.75;;;11.83;58.15
76132;BME280;64877;50.994;13.650;2024-02-14T09:53:32;99839.72;;;11.89;58.86
76132;BME280;64877;50.994;13.650;2024-02-14T09:55:58;99841.56;;;12.00;59.43
76132;BME280;64877;50.994;13.650;2024-02-14T09:58:25;99840.31;;;12.04;58.97
76132;BME280;64877;50.994;13.650;2024-02-14T10:00:52;99844.13;;;12.13;59.22
76132;BME280;64877;50.994;13.650;2024-02-14T10:03:17;99846.44;;;12.18;59.43
76132;BME280;64877;50.994;13.650;2024-02-14T10:05:43;99844.72;;;12.28;65.50
76132;BME280;64877;50.994;13.650;2024-02-14T10:08:09;99840.75;;;12.54;64.26
76132;BME280;64877;50.994;13.650;2024-02-14T10:10:37;99847.53;;;12.81;61.81
76132;BME280;64877;50.994;13.650;2024-02-14T10:13:06;99843.84;;;12.82;59.28
76132;BME280;64877;50.994;13.650;2024-02-14T10:15:33;99847.88;;;12.87;58.75
76132;BME280;64877;50.994;13.650;2024-02-14T10:17:59;99834.47;;;12.86;59.17
76132;BME280;64877;50.994;13.650;2024-02-14T10:20:25;99833.69;;;12.95;60.52
76132;BME280;64877;50.994;13.650;2024-02-14T10:22:52;99838.88;;;12.98;60.39
76132;BME280;64877;50.994;13.650;2024-02-14T10:25:25;99838.34;;;13.04;59.09
76132;BME280;64877;50.994;13.650;2024-02-14T10:27:50;99835.88;;;13.01;59.25
76132;BME280;64877;50.994;13.650;2024-02-14T10:30:16;99834.31;;;12.99;59.68
76132;BME280;64877;50.994;13.650;2024-02-14T10:32:42;99840.63;;;12.88;59.04
76132;BME280;64877;50.994;13.650;2024-02-14T10:35:13;99842.13;;;12.81;59.85
76132;BME280;64877;50.994;13.650;2024-02-14T10:37:39;99840.88;;;12.85;60.27
76132;BME280;64877;50.994;13.650;2024-02-14T10:40:05;99833.59;;;12.85;61.74
76132;BME280;64877;50.994;13.650;2024-02-14T10:42:32;99839.69;;;12.66;63.56
76132;BME280;64877;50.994;13.650;2024-02-14T10:44:57;99836.38;;;12.63;65.58
76132;BME280;64877;50.994;13.650;2024-02-14T10:47:25;99831.84;;;12.63;66.80
76132;BME280;64877;50.994;13.650;2024-02-14T10:50:00;99829.63;;;12.57;67.05
76132;BME280;64877;50.994;13.650;2024-02-14T10:52:30;99829.63;;;12.57;68.12
76132;BME280;64877;50.994;13.650;2024-02-14T10:54:56;99827.47;;;12.40;69.38
76132;BME280;64877;50.994;13.650;2024-02-14T10:57:24;99830.66;;;12.45;69.80
76132;BME280;64877;50.994;13.650;2024-02-14T10:59:50;99823.25;;;12.47;70.32
76132;BME280;64877;50.994;13.650;2024-02-14T11:02:20;99830.16;;;12.51;70.51
76132;BME280;64877;50.994;13.650;2024-02-14T11:04:46;99818.56;;;12.60;70.33
76132;BME280;64877;50.994;13.650;2024-02-14T11:07:12;99813.84;;;12.62;69.70
76132;BME280;64877;50.994;13.650;2024-02-14T11:09:41;99810.84;;;12.77;69.76
76132;BME280;64877;50.994;13.650;2024-02-14T11:12:07;99809.75;;;12.79;69.26
76132;BME280;64877;50.994;13.650;2024-02-14T11:14:37;99794.56;;;12.88;69.33
76132;BME280;64877;50.994;13.650;2024-02-14T11:17:12;99796.41;;;13.08;68.24
76132;BME280;64877;50.994;13.650;2024-02-14T11:19:39;99803.47;;;13.20;67.95
76132;BME280;64877;50.994;13.650;2024-02-14T11:22:19;99798.81;;;13.23;66.82
76132;BME280;64877;50.994;13.650;2024-02-14T11:24:46;99792.66;;;13.41;66.25
76132;BME280;64877;50.994;13.650;2024-02-14T11:27:14;99800.69;;;13.43;66.00
76132;BME280;64877;50.994;13.650;2024-02-14T11:29:40;99794.34;;;13.33;66.11
76132;BME280;64877;50.994;13.650;2024-02-14T11:32:07;99795.59;;;13.29;66.72
76132;BME280;64877;50.994;13.650;2024-02-14T11:34:39;99798.81;;;13.43;66.78
76132;BME280;64877;50.994;13.650;2024-02-14T11:37:04;99800.69;;;13.43;66.41
76132;BME280;64877;50.994;13.650;2024-02-14T11:39:33;99808.72;;;13.54;66.03
76132;BME280;64877;50.994;13.650;2024-02-14T11:42:00;99809.66;;;13.64;64.59
76132;BME280;64877;50.994;13.650;2024-02-14T11:44:27;99806.44;;;13.80;64.07
76132;BME280;64877;50.994;13.650;2024-02-14T11:46:53;99809.13;;;13.80;64.43
76132;BME280;64877;50.994;13.650;2024-02-14T11:49:22;99801.75;;;13.92;62.98
76132;BME280;64877;50.994;13.650;2024-02-14T11:51:48;99797.50;;;13.99;63.36
76132;BME280;64877;50.994;13.650;2024-02-14T11:54:14;99801.50;;;13.95;63.39
76132;BME280;64877;50.994;13.650;2024-02-14T11:56:41;99805.22;;;13.94;62.48
76132;BME280;64877;50.994;13.650;2024-02-14T11:59:07;99814.66;;;14.00;61.72
76132;BME280;64877;50.994;13.650;2024-02-14T12:01:36;99806.22;;;13.93;62.10
76132;BME280;64877;50.994;13.650;2024-02-14T12:04:04;99806.63;;;13.88;62.04
76132;BME280;64877;50.994;13.650;2024-02-14T12:06:31;99811.75;;;13.91;62.01
76132;BME280;64877;50.994;13.650;2024-02-14T12:09:00;99813.50;;;14.02;62.15
76132;BME280;64877;50.994;13.650;2024-02-14T12:11:31;99810.09;;;14.00;62.25
76132;BME280;64877;50.994;13.650;2024-02-14T12:14:01;99811.94;;;14.00;62.13
76132;BME280;64877;50.994;13.650;2024-02-14T12:16:28;99813.44;;;14.13;62.17
76132;BME280;64877;50.994;13.650;2024-02-14T12:19:13;99810.13;;;14.10;61.30
76132;BME280;64877;50.994;13.650;2024-02-14T12:21:41;99811.56;;;14.14;60.89
76132;BME280;64877;50.994;13.650;2024-02-14T12:24:08;99817.00;;;14.14;61.12
76132;BME280;64877;50.994;13.650;2024-02-14T12:26:34;99811.28;;;14.07;61.04
76132;BME280;64877;50.994;13.650;2024-02-14T12:29:04;99814.69;;;14.09;60.88
76132;BME280;64877;50.994;13.650;2024-02-14T12:31:30;99816.97;;;14.04;61.72
76132;BME280;64877;50.994;13.650;2024-02-14T12:33:59;99822.34;;;13.94;61.13
76132;BME280;64877;50.994;13.650;2024-02-14T12:36:27;99813.16;;;13.86;61.84
76132;BME280;64877;50.994;13.650;2024-02-14T12:38:54;99820.59;;;13.84;62.09
76132;BME280;64877;50.994;13.650;2024-02-14T12:41:21;99806.66;;;13.98;61.22
76132;BME280;64877;50.994;13.650;2024-02-14T12:43:51;99805.47;;;13.91;61.81
76132;BME280;64877;50.994;13.650;2024-02-14T12:46:16;99798.78;;;13.95;61.19
76132;BME280;64877;50.994;13.650;2024-02-14T12:48:42;99815.06;;;13.95;61.51
76132;BME280;64877;50.994;13.650;2024-02-14T12:51:08;99813.00;;;13.78;62.51